Time;durP1;ratioP1;P1;durP2;ratioP2;P2;SDS_P1;SDS_P2;PMS_P1;PMS_P2;Temp;Humidity;BMP_temperature;BMP_pressure;BME280_temperature;BME280_humidity;BME280_pressure;Samples;Min_cycle;Max_cycle;Signal;HPM_P1;HPM_P2
2021/11/15 00:00:03;;;;;;;7.33;5.53;;;8.80;99.90;;;;;;4957783;28;20452;-80
2021/11/15 00:02:30;;;;;;;7.60;6.80;;;8.70;99.90;;;;;;5000239;28;20428;-80
2021/11/15 00:04:56;;;;;;;6.80;6.10;;;8.80;99.90;;;;;;5000975;28;20500;-80
2021/11/15 00:07:24;;;;;;;8.53;6.90;;;8.80;99.90;;;;;;5000172;28;20433;-80
2021/11/15 00:10:01;;;;;;;8.00;6.50;;;8.70;99.90;;;;;;5002176;28;20429;-80
2021/11/15 00:12:51;;;;;;;6.83;5.03;;;8.70;99.90;;;;;;5001043;28;20424;-80
2021/11/15 00:15:23;;;;;;;6.83;5.23;;;8.70;99.90;;;;;;4975239;28;20414;-80
2021/11/15 00:18:05;;;;;;;10.50;7.53;;;8.80;99.90;;;;;;4981147;28;20414;-80
2021/11/15 00:20:35;;;;;;;11.33;5.90;;;8.70;99.90;;;;;;4966556;28;20430;-80
2021/11/15 00:23:07;;;;;;;8.77;5.77;;;8.70;99.90;;;;;;4947044;29;20431;-80
2021/11/15 00:25:40;;;;;;;7.00;6.17;;;8.70;99.90;;;;;;4943406;28;20837;-80
2021/11/15 00:28:08;;;;;;;6.33;4.93;;;8.80;99.90;;;;;;4966477;28;20381;-79
2021/11/15 00:30:38;;;;;;;7.77;6.20;;;8.90;99.90;;;;;;4982212;28;20436;-80
2021/11/15 00:33:06;;;;;;;8.77;5.67;;;8.80;99.90;;;;;;5001296;28;20429;-81
2021/11/15 00:35:33;;;;;;;6.10;4.97;;;8.80;99.90;;;;;;4982358;28;20446;-80
2021/11/15 00:38:02;;;;;;;8.37;5.90;;;8.80;99.90;;;;;;4998181;28;20489;-80
2021/11/15 00:40:28;;;;;;;6.90;4.90;;;8.90;99.90;;;;;;4982155;28;20456;-80
2021/11/15 00:42:57;;;;;;;9.60;6.17;;;8.90;99.90;;;;;;4944332;29;20468;-80
2021/11/15 00:45:32;;;;;;;6.93;6.23;;;8.90;99.90;;;;;;4983467;28;20443;-80
2021/11/15 00:48:25;;;;;;;10.50;6.87;;;8.90;99.90;;;;;;5008232;28;20405;-80
2021/11/15 00:50:54;;;;;;;6.47;5.73;;;8.90;99.90;;;;;;5018731;28;20412;-80
2021/11/15 00:53:21;;;;;;;6.33;5.07;;;8.80;99.90;;;;;;5036120;28;20512;-81
2021/11/15 00:55:47;;;;;;;8.83;6.23;;;8.90;99.90;;;;;;5018854;28;20917;-80
2021/11/15 00:58:17;;;;;;;7.67;6.97;;;8.70;99.90;;;;;;4987963;28;20440;-80
2021/11/15 01:00:51;;;;;;;7.70;5.63;;;8.90;99.90;;;;;;5003200;28;20500;-80
2021/11/15 01:03:20;;;;;;;7.93;6.03;;;9.00;99.90;;;;;;5004289;28;20438;-80
2021/11/15 01:06:00;;;;;;;9.23;5.40;;;8.90;99.90;;;;;;4987445;28;20516;-80
2021/11/15 01:08:26;;;;;;;7.23;5.33;;;8.80;99.90;;;;;;4999010;28;20449;-79
2021/11/15 01:10:55;;;;;;;6.70;6.00;;;8.90;99.90;;;;;;4987497;28;20408;-80
2021/11/15 01:13:23;;;;;;;8.77;5.43;;;8.90;99.90;;;;;;5024776;28;20420;-80
2021/11/15 01:15:52;;;;;;;9.07;6.10;;;8.90;99.90;;;;;;4949280;28;20426;-79
2021/11/15 01:18:31;;;;;;;7.33;5.60;;;8.90;99.90;;;;;;4950087;29;20404;-80
2021/11/15 01:21:04;;;;;;;7.27;5.60;;;8.90;99.90;;;;;;4930755;29;20454;-80
2021/11/15 01:23:33;;;;;;;7.80;5.77;;;8.90;99.90;;;;;;4947403;29;20411;-80
2021/11/15 01:26:06;;;;;;;9.40;6.60;;;8.90;99.90;;;;;;4945985;29;21074;-80
2021/11/15 01:28:54;;;;;;;7.13;6.30;;;9.00;99.90;;;;;;4871649;29;20515;-80
2021/11/15 01:31:21;;;;;;;10.50;6.33;;;9.10;99.90;;;;;;4869695;29;20405;-80
2021/11/15 01:33:47;;;;;;;8.47;5.73;;;9.10;99.90;;;;;;4869632;29;20194;-80
2021/11/15 01:36:17;;;;;;;8.50;5.33;;;9.10;99.90;;;;;;4868269;29;20431;-80
2021/11/15 01:38:44;;;;;;;7.80;6.67;;;8.90;99.90;;;;;;4856774;29;20501;-80
2021/11/15 01:41:11;;;;;;;8.00;5.93;;;8.80;99.90;;;;;;4887189;29;20905;-80
2021/11/15 01:43:42;;;;;;;9.27;5.50;;;8.80;99.90;;;;;;4887321;29;20425;-80
2021/11/15 01:46:08;;;;;;;7.63;5.63;;;8.80;99.90;;;;;;4890178;29;20411;-81
2021/11/15 01:48:37;;;;;;;9.37;7.20;;;8.80;99.90;;;;;;4887614;29;20189;-80
2021/11/15 01:51:06;;;;;;;6.80;6.10;;;8.80;99.90;;;;;;4886817;29;20655;-79
2021/11/15 01:53:40;;;;;;;7.30;5.67;;;8.80;99.90;;;;;;4879822;29;20394;-78
2021/11/15 01:56:10;;;;;;;8.37;5.70;;;8.90;99.90;;;;;;4919331;29;21919;-77
2021/11/15 01:58:39;;;;;;;11.20;6.73;;;8.80;99.90;;;;;;4926015;28;20413;-77
2021/11/15 02:01:18;;;;;;;9.87;6.70;;;9.00;99.90;;;;;;4999037;28;20461;-77
2021/11/15 02:03:47;;;;;;;8.07;6.23;;;8.90;99.90;;;;;;4975161;28;20432;-80
2021/11/15 02:06:13;;;;;;;7.83;5.23;;;8.80;99.90;;;;;;5021503;28;20399;-80
2021/11/15 02:08:40;;;;;;;13.13;6.93;;;8.70;99.90;;;;;;5023237;28;20416;-80
2021/11/15 02:11:08;;;;;;;7.90;6.30;;;8.70;99.90;;;;;;5007492;28;20415;-80
2021/11/15 02:13:48;;;;;;;9.30;6.93;;;8.70;99.90;;;;;;5040148;28;20403;-80
2021/11/15 02:16:21;;;;;;;7.70;5.80;;;8.80;99.90;;;;;;5049908;28;20415;-80
2021/11/15 02:19:02;;;;;;;7.57;6.57;;;8.80;99.90;;;;;;5034639;28;21016;-80
2021/11/15 02:21:50;;;;;;;5.93;5.33;;;8.70;99.90;;;;;;5013607;28;20425;-80
2021/11/15 02:24:18;;;;;;;7.63;5.40;;;8.70;99.90;;;;;;4987613;28;20433;-80
2021/11/15 02:26:49;;;;;;;7.67;5.57;;;8.70;99.90;;;;;;5003843;28;20452;-79
2021/11/15 02:29:14;;;;;;;9.63;5.90;;;8.80;99.90;;;;;;5019630;28;20426;-80
2021/11/15 02:31:41;;;;;;;9.03;6.47;;;8.70;99.90;;;;;;5010821;28;20448;-80
2021/11/15 02:34:10;;;;;;;11.33;5.97;;;8.90;99.90;;;;;;5004069;28;20661;-80
2021/11/15 02:36:39;;;;;;;7.77;5.13;;;8.70;99.90;;;;;;4967727;28;20924;-80
2021/11/15 02:39:07;;;;;;;9.33;7.70;;;8.80;99.90;;;;;;5000687;28;20399;-80
2021/11/15 02:41:40;;;;;;;9.70;6.53;;;8.80;99.90;;;;;;5001453;28;20453;-80
2021/11/15 02:44:14;;;;;;;8.50;6.83;;;8.70;99.90;;;;;;4969319;28;20464;-80
2021/11/15 02:46:42;;;;;;;8.17;6.53;;;8.70;99.90;;;;;;4985111;28;20400;-79
2021/11/15 02:49:08;;;;;;;10.10;6.40;;;8.70;99.90;;;;;;4984889;28;20425;-80
2021/11/15 02:51:43;;;;;;;8.50;7.13;;;8.70;99.90;;;;;;4985148;28;21008;-80
2021/11/15 02:54:11;;;;;;;10.27;5.93;;;8.60;99.90;;;;;;5001847;28;20193;-79
2021/11/15 02:56:44;;;;;;;6.97;5.60;;;8.70;99.90;;;;;;5020126;28;20379;-80
2021/11/15 02:59:34;;;;;;;10.10;5.93;;;8.90;99.90;;;;;;4965985;28;20948;-80
2021/11/15 03:02:03;;;;;;;15.60;7.00;;;8.80;99.90;;;;;;4907191;29;20528;-80
2021/11/15 03:04:29;;;;;;;13.40;8.00;;;8.70;99.90;;;;;;4892051;29;20491;-80
2021/11/15 03:06:56;;;;;;;11.23;7.00;;;8.60;99.90;;;;;;4871493;29;20503;-80
2021/11/15 03:09:23;;;;;;;6.70;5.50;;;8.50;99.90;;;;;;4887007;29;20219;-80
2021/11/15 03:11:54;;;;;;;10.00;6.50;;;8.60;99.90;;;;;;4905683;29;20480;-80
2021/11/15 03:14:25;;;;;;;11.70;5.90;;;8.60;99.90;;;;;;4882375;29;20474;-77
2021/11/15 03:16:52;;;;;;;9.03;7.17;;;8.60;99.90;;;;;;4929953;29;20519;-80
2021/11/15 03:19:28;;;;;;;7.33;5.90;;;8.70;99.90;;;;;;4914884;29;20415;-79
2021/11/15 03:21:54;;;;;;;10.07;6.20;;;8.70;99.90;;;;;;4891298;29;20432;-80
2021/11/15 03:24:22;;;;;;;10.27;6.07;;;8.80;99.90;;;;;;4892142;29;20469;-79
2021/11/15 03:26:50;;;;;;;10.33;6.80;;;8.80;99.90;;;;;;4892033;29;20418;-79
2021/11/15 03:29:26;;;;;;;6.17;5.57;;;8.60;99.90;;;;;;4873705;29;20414;-80
2021/11/15 03:31:52;;;;;;;12.27;7.40;;;8.50;99.90;;;;;;4872562;29;20424;-77
2021/11/15 03:34:26;;;;;;;10.20;7.40;;;8.50;99.90;;;;;;4894578;29;20486;-78
2021/11/15 03:36:57;;;;;;;8.63;6.60;;;8.50;99.90;;;;;;4886717;29;20521;-79
2021/11/15 03:39:24;;;;;;;8.47;6.10;;;8.60;99.90;;;;;;4886801;29;20482;-80
2021/11/15 03:41:55;;;;;;;6.13;5.40;;;8.50;99.90;;;;;;4887696;29;20478;-80
2021/11/15 03:44:42;;;;;;;10.73;6.87;;;8.50;99.90;;;;;;4880358;29;20448;-80
2021/11/15 03:47:11;;;;;;;8.30;6.37;;;8.40;99.90;;;;;;4843894;29;20411;-80
2021/11/15 03:49:40;;;;;;;7.67;4.90;;;8.40;99.90;;;;;;4868722;29;20398;-80
2021/11/15 03:52:07;;;;;;;8.20;6.43;;;8.40;99.90;;;;;;4887526;29;20473;-79
2021/11/15 03:54:35;;;;;;;8.50;6.57;;;8.40;99.90;;;;;;4924191;29;20418;-79
2021/11/15 03:57:02;;;;;;;9.80;6.70;;;8.40;99.90;;;;;;4907619;29;20436;-80
2021/11/15 03:59:35;;;;;;;14.00;7.37;;;8.50;99.90;;;;;;4913001;28;20490;-80
2021/11/15 04:02:04;;;;;;;10.73;7.43;;;8.50;99.90;;;;;;4940949;29;20402;-80
2021/11/15 04:04:48;;;;;;;9.23;6.10;;;8.40;99.90;;;;;;4926438;29;20465;-78
2021/11/15 04:07:28;;;;;;;11.60;6.60;;;8.30;99.90;;;;;;4900984;29;20189;-78
2021/11/15 04:10:05;;;;;;;7.80;6.17;;;8.30;99.90;;;;;;4897341;29;20408;-78
2021/11/15 04:12:39;;;;;;;8.23;6.50;;;8.20;99.90;;;;;;4881923;29;20882;-78
2021/11/15 04:15:12;;;;;;;10.70;7.20;;;8.30;99.90;;;;;;4872114;29;20392;-80
2021/11/15 04:18:09;;;;;;;7.93;7.00;;;8.20;99.90;;;;;;4876084;29;20428;-80
2021/11/15 04:20:37;;;;;;;9.27;7.60;;;8.30;99.90;;;;;;4839352;29;20940;-80
2021/11/15 04:23:10;;;;;;;11.33;6.30;;;8.20;99.90;;;;;;4877366;29;20427;-80
2021/11/15 04:25:39;;;;;;;11.43;6.53;;;8.30;99.90;;;;;;4885169;29;20498;-80
2021/11/15 04:28:16;;;;;;;7.70;5.90;;;8.40;99.90;;;;;;4885361;29;20839;-80
2021/11/15 04:31:04;;;;;;;8.83;5.90;;;8.40;99.90;;;;;;4855434;29;20412;-80
2021/11/15 04:33:33;;;;;;;8.37;6.20;;;8.40;99.90;;;;;;4870398;29;20463;-80
2021/11/15 04:36:04;;;;;;;14.23;6.90;;;8.30;99.90;;;;;;4897218;29;20393;-80
2021/11/15 04:38:34;;;;;;;8.90;6.40;;;8.20;99.90;;;;;;4881453;29;20466;-81
2021/11/15 04:41:03;;;;;;;9.50;6.47;;;8.20;99.90;;;;;;4864030;29;20549;-81
2021/11/15 04:43:30;;;;;;;11.30;6.97;;;8.10;99.90;;;;;;4862357;29;20512;-81
2021/11/15 04:45:59;;;;;;;11.90;7.17;;;8.10;99.90;;;;;;4830691;29;20451;-80
2021/11/15 04:48:30;;;;;;;8.33;6.53;;;8.20;99.90;;;;;;4835271;29;20449;-81
2021/11/15 04:51:02;;;;;;;14.33;7.90;;;8.10;99.90;;;;;;4842996;29;20383;-81
2021/11/15 04:53:38;;;;;;;11.33;7.63;;;8.20;99.90;;;;;;4829217;29;20908;-80
2021/11/15 04:56:07;;;;;;;10.70;7.70;;;8.20;99.90;;;;;;4844546;29;20445;-81
2021/11/15 04:58:35;;;;;;;8.43;7.00;;;8.20;99.90;;;;;;4838174;29;20417;-78
2021/11/15 05:01:07;;;;;;;12.13;7.70;;;8.10;99.90;;;;;;4883132;29;20400;-79
2021/11/15 05:03:35;;;;;;;9.20;5.87;;;8.10;99.90;;;;;;4905604;29;20455;-78
2021/11/15 05:06:06;;;;;;;10.30;6.47;;;8.10;99.90;;;;;;4902075;28;20498;-77
2021/11/15 05:08:39;;;;;;;9.47;6.27;;;8.10;99.90;;;;;;4949030;29;20423;-78
2021/11/15 05:11:11;;;;;;;11.20;8.27;;;8.10;99.90;;;;;;4934030;28;20443;-77
2021/11/15 05:13:43;;;;;;;10.17;7.10;;;8.10;99.90;;;;;;4964118;28;20190;-78
2021/11/15 05:16:11;;;;;;;10.83;7.63;;;8.20;99.90;;;;;;4933826;29;20490;-78
2021/11/15 05:18:47;;;;;;;11.00;7.87;;;8.10;99.90;;;;;;4934888;28;20390;-78
2021/11/15 05:21:40;;;;;;;8.50;6.77;;;8.10;99.90;;;;;;4958206;29;20474;-78
2021/11/15 05:24:08;;;;;;;9.70;7.03;;;8.10;99.90;;;;;;4966481;29;20482;-78
2021/11/15 05:26:40;;;;;;;11.30;7.03;;;8.00;99.90;;;;;;4936231;28;20425;-77
2021/11/15 05:29:18;;;;;;;9.73;7.47;;;8.00;99.90;;;;;;4951544;29;20841;-78
2021/11/15 05:31:49;;;;;;;7.60;6.33;;;8.10;99.90;;;;;;4934584;29;20481;-78
2021/11/15 05:34:25;;;;;;;14.57;7.97;;;8.00;99.90;;;;;;4936556;29;20445;-78
2021/11/15 05:36:55;;;;;;;11.17;7.30;;;8.00;99.90;;;;;;4929865;29;20451;-78
2021/11/15 05:39:25;;;;;;;8.63;7.07;;;8.00;99.90;;;;;;4899014;29;20431;-80
2021/11/15 05:41:51;;;;;;;9.70;8.70;;;8.00;99.90;;;;;;4895423;29;20443;-80
2021/11/15 05:44:20;;;;;;;15.97;8.20;;;8.00;99.90;;;;;;4927220;29;20475;-80
2021/11/15 05:47:11;;;;;;;14.10;7.33;;;8.00;99.90;;;;;;4892485;29;20413;-80
2021/11/15 05:49:38;;;;;;;10.20;7.70;;;8.10;99.90;;;;;;4904979;29;20429;-80
2021/11/15 05:52:14;;;;;;;12.60;8.70;;;8.10;99.90;;;;;;4859774;29;20393;-80
2021/11/15 05:55:08;;;;;;;15.27;8.10;;;8.00;99.90;;;;;;4856855;29;20419;-80
2021/11/15 05:57:34;;;;;;;9.73;7.93;;;8.10;99.90;;;;;;4928169;28;20475;-81
2021/11/15 06:00:11;;;;;;;11.70;8.90;;;8.10;99.90;;;;;;4942571;29;20393;-80
2021/11/15 06:02:40;;;;;;;18.27;9.60;;;8.10;99.90;;;;;;4927063;29;20431;-80
2021/11/15 06:05:08;;;;;;;15.27;10.73;;;8.10;99.90;;;;;;4926589;29;20471;-80
2021/11/15 06:07:37;;;;;;;16.27;10.40;;;8.20;99.90;;;;;;4926349;29;20509;-80
2021/11/15 06:10:11;;;;;;;15.70;10.83;;;8.10;99.90;;;;;;4907679;29;20899;-80
2021/11/15 06:13:06;;;;;;;25.60;10.20;;;8.10;99.90;;;;;;4904814;29;20481;-79
2021/11/15 06:15:47;;;;;;;13.20;9.33;;;8.10;99.90;;;;;;4893118;29;20448;-80
2021/11/15 06:18:15;;;;;;;13.67;10.63;;;8.20;99.90;;;;;;4888404;29;20478;-80
2021/11/15 06:20:46;;;;;;;13.03;8.87;;;8.00;99.90;;;;;;4867348;29;20966;-80
2021/11/15 06:23:20;;;;;;;15.97;9.27;;;8.00;99.90;;;;;;4857493;29;20392;-80
2021/11/15 06:25:51;;;;;;;13.00;10.47;;;8.00;99.90;;;;;;4881914;29;20478;-80
2021/11/15 06:28:17;;;;;;;15.53;9.17;;;8.00;99.90;;;;;;4875631;29;20428;-80
2021/11/15 06:30:43;;;;;;;14.17;9.40;;;8.00;99.90;;;;;;4867861;29;20449;-80
2021/11/15 06:33:10;;;;;;;22.50;9.30;;;8.00;99.90;;;;;;4881556;29;20217;-80
2021/11/15 06:35:37;;;;;;;14.30;9.67;;;8.00;99.90;;;;;;4862119;29;20492;-81
2021/11/15 06:38:04;;;;;;;14.93;9.53;;;7.90;99.90;;;;;;4874737;29;20447;-80
2021/11/15 06:40:34;;;;;;;15.50;8.30;;;7.90;99.90;;;;;;4870990;29;20449;-80
2021/11/15 06:43:06;;;;;;;19.97;9.40;;;7.80;99.90;;;;;;4882551;29;20469;-80
2021/11/15 06:45:35;;;;;;;13.77;9.77;;;7.80;99.90;;;;;;4869666;29;20441;-79
2021/11/15 06:48:07;;;;;;;14.83;8.60;;;7.80;99.90;;;;;;4856371;29;20415;-79
2021/11/15 06:50:33;;;;;;;16.20;11.60;;;7.70;99.90;;;;;;4855247;29;20447;-79
2021/11/15 06:52:58;;;;;;;14.33;8.90;;;7.70;99.90;;;;;;4870856;29;20903;-79
2021/11/15 06:55:25;;;;;;;17.33;8.80;;;7.80;99.90;;;;;;4855880;29;20657;-79
2021/11/15 06:57:53;;;;;;;19.95;12.00;;;7.90;99.90;;;;;;4884862;29;20459;-79
2021/11/15 07:00:26;;;;;;;19.77;10.33;;;7.90;99.90;;;;;;4849022;29;20259;-79
2021/11/15 07:02:55;;;;;;;15.53;10.70;;;7.80;99.90;;;;;;4893313;29;20977;-80
2021/11/15 07:05:24;;;;;;;19.47;10.93;;;7.80;99.90;;;;;;4915578;29;20437;-80
2021/11/15 07:07:52;;;;;;;14.27;9.23;;;7.70;99.90;;;;;;4926141;29;20428;-80
2021/11/15 07:10:24;;;;;;;22.73;12.53;;;7.70;99.90;;;;;;4912506;29;20448;-80
2021/11/15 07:12:53;;;;;;;16.10;11.47;;;7.70;99.90;;;;;;4886843;29;20429;-79
2021/11/15 07:15:21;;;;;;;16.83;9.23;;;7.60;99.90;;;;;;4900363;29;20463;-79
2021/11/15 07:18:11;;;;;;;19.53;10.97;;;7.60;99.90;;;;;;4892894;29;20440;-79
2021/11/15 07:20:39;;;;;;;19.77;10.10;;;7.60;99.90;;;;;;4870240;29;20447;-77
2021/11/15 07:23:08;;;;;;;18.17;12.30;;;7.60;99.90;;;;;;4864461;29;20416;-80
2021/11/15 07:25:34;;;;;;;20.20;8.87;;;7.70;99.90;;;;;;4835485;29;20433;-78
2021/11/15 07:28:00;;;;;;;19.53;11.03;;;7.70;99.90;;;;;;4870601;29;20832;-80
2021/11/15 07:30:26;;;;;;;21.53;11.77;;;7.60;99.90;;;;;;4867825;29;20502;-80
2021/11/15 07:32:53;;;;;;;21.80;11.70;;;7.60;99.90;;;;;;4867141;29;20516;-82
2021/11/15 07:35:19;;;;;;;24.87;13.00;;;7.70;99.90;;;;;;4849657;29;20421;-81
2021/11/15 07:37:46;;;;;;;16.03;11.33;;;7.50;99.90;;;;;;4869559;29;20511;-81
2021/11/15 07:40:14;;;;;;;22.60;11.13;;;7.50;99.90;;;;;;4863199;29;20451;-81
2021/11/15 07:42:40;;;;;;;19.43;11.93;;;7.60;99.90;;;;;;4879643;29;20484;-80
2021/11/15 07:45:07;;;;;;;23.90;12.40;;;7.60;99.90;;;;;;4866102;29;20455;-80
2021/11/15 07:47:35;;;;;;;20.10;12.23;;;7.60;99.90;;;;;;4876054;29;20439;-81
2021/11/15 07:50:02;;;;;;;24.33;12.03;;;7.70;99.90;;;;;;4912020;28;20410;-82
2021/11/15 07:52:28;;;;;;;22.50;11.93;;;7.60;99.90;;;;;;5028476;28;20414;-81
2021/11/15 07:54:54;;;;;;;21.13;14.37;;;7.60;99.90;;;;;;5012802;28;20443;-80
2021/11/15 07:57:23;;;;;;;19.67;12.80;;;7.50;99.90;;;;;;5008130;28;20182;-79
2021/11/15 07:59:48;;;;;;;22.77;12.10;;;7.50;99.90;;;;;;5000004;28;20452;-80
2021/11/15 08:02:18;;;;;;;18.40;12.20;;;7.40;99.90;;;;;;5000450;28;20423;-79
2021/11/15 08:04:46;;;;;;;25.93;11.87;;;7.40;99.90;;;;;;4963977;28;20528;-80
2021/11/15 08:07:23;;;;;;;21.83;13.70;;;7.40;99.90;;;;;;4974018;28;20404;-80
2021/11/15 08:10:13;;;;;;;20.60;13.33;;;7.50;99.90;;;;;;4981048;28;20501;-80
2021/11/15 08:12:47;;;;;;;19.77;12.63;;;7.50;99.90;;;;;;4999241;28;20483;-80
2021/11/15 08:15:15;;;;;;;22.10;12.27;;;7.50;99.90;;;;;;4993456;28;20962;-80
2021/11/15 08:18:07;;;;;;;21.50;12.03;;;7.50;99.90;;;;;;4989167;28;20426;-81
2021/11/15 08:20:55;;;;;;;24.23;13.30;;;7.60;99.90;;;;;;4949099;28;20424;-78
2021/11/15 08:23:26;;;;;;;21.17;13.73;;;7.60;99.90;;;;;;4893934;29;20444;-79
2021/11/15 08:26:14;;;;;;;21.33;13.90;;;7.70;99.90;;;;;;4870735;29;20475;-80
2021/11/15 08:28:43;;;;;;;22.03;14.70;;;7.70;99.90;;;;;;4874417;29;20469;-81
2021/11/15 08:31:10;;;;;;;15.47;11.27;;;7.80;99.90;;;;;;4852975;29;20426;-80
2021/11/15 08:33:38;;;;;;;23.00;13.47;;;8.00;99.90;;;;;;4834566;29;20898;-79
2021/11/15 08:36:06;;;;;;;23.77;14.73;;;7.80;99.90;;;;;;4809963;29;20436;-80
2021/11/15 08:38:46;;;;;;;28.30;14.63;;;7.70;99.90;;;;;;4767612;30;20544;-80
2021/11/15 08:41:36;;;;;;;21.20;12.63;;;7.70;99.90;;;;;;4756163;30;20966;-80
2021/11/15 08:44:05;;;;;;;16.87;12.57;;;7.80;99.90;;;;;;4762656;30;20464;-80
2021/11/15 08:46:33;;;;;;;29.88;18.83;;;7.70;99.90;;;;;;4746212;30;20462;-80
2021/11/15 08:49:02;;;;;;;24.20;14.03;;;7.70;99.90;;;;;;4757241;30;20198;-79
2021/11/15 08:51:29;;;;;;;26.37;12.80;;;7.70;99.90;;;;;;4784194;30;20423;-80
2021/11/15 08:54:19;;;;;;;27.63;13.67;;;7.80;99.90;;;;;;4769586;30;20439;-78
2021/11/15 08:57:27;;;;;;;16.77;11.17;;;7.90;99.90;;;;;;4772842;30;20458;-79
2021/11/15 09:00:21;;;;;;;24.80;12.77;;;7.60;99.90;;;;;;4793600;29;20465;-79
2021/11/15 09:03:07;;;;;;;25.30;13.87;;;7.60;99.90;;;;;;4763541;30;20419;-80
2021/11/15 09:05:35;;;;;;;19.97;12.87;;;7.80;99.90;;;;;;4805253;29;20480;-79
2021/11/15 09:08:06;;;;;;;19.90;11.90;;;7.80;99.90;;;;;;4803571;29;20492;-78
2021/11/15 09:10:38;;;;;;;21.83;12.40;;;7.80;99.90;;;;;;4786737;30;20465;-80
2021/11/15 09:13:09;;;;;;;20.53;11.90;;;7.70;99.90;;;;;;4811095;29;20501;-80
2021/11/15 09:15:56;;;;;;;21.67;11.37;;;7.70;99.90;;;;;;4814578;29;20442;-80
2021/11/15 09:18:44;;;;;;;22.20;13.40;;;7.70;99.90;;;;;;4794515;29;20544;-79
2021/11/15 09:21:37;;;;;;;23.30;12.90;;;7.90;99.90;;;;;;4806925;29;21036;-79
2021/11/15 09:24:13;;;;;;;21.40;12.17;;;7.80;99.90;;;;;;4793492;29;20552;-80
2021/11/15 09:26:51;;;;;;;24.53;14.73;;;7.90;99.90;;;;;;4800966;29;20474;-80
2021/11/15 09:29:22;;;;;;;22.23;12.03;;;7.80;99.90;;;;;;4820614;29;20542;-80
2021/11/15 09:31:51;;;;;;;25.67;13.80;;;7.80;99.90;;;;;;4781385;30;21010;-79
2021/11/15 09:34:18;;;;;;;22.47;12.80;;;7.90;99.90;;;;;;4780388;30;20513;-80
2021/11/15 09:36:47;;;;;;;21.10;12.10;;;7.90;99.90;;;;;;4762813;29;20417;-80
2021/11/15 09:39:14;;;;;;;25.20;13.90;;;7.90;99.90;;;;;;4790114;30;20469;-80
2021/11/15 09:41:45;;;;;;;19.23;11.23;;;8.00;99.90;;;;;;4795983;29;20450;-81
2021/11/15 09:44:11;;;;;;;27.70;14.00;;;7.90;99.90;;;;;;4836030;29;20423;-79
2021/11/15 09:46:38;;;;;;;24.87;12.70;;;8.00;99.90;;;;;;4866495;29;20438;-81
2021/11/15 09:49:10;;;;;;;23.17;12.70;;;8.20;99.90;;;;;;4862045;29;20527;-80
2021/11/15 09:51:40;;;;;;;29.17;14.33;;;8.10;99.90;;;;;;4859200;29;20414;-80
2021/11/15 09:54:09;;;;;;;23.63;14.30;;;8.00;99.90;;;;;;4871931;29;20483;-81
2021/11/15 09:56:39;;;;;;;17.70;10.40;;;7.90;99.90;;;;;;4890951;29;20489;-81
2021/11/15 09:59:07;;;;;;;22.23;11.10;;;7.90;99.90;;;;;;4902816;29;20448;-79
2021/11/15 10:01:34;;;;;;;24.90;14.40;;;8.10;99.90;;;;;;4899837;29;20768;-81
2021/11/15 10:04:01;;;;;;;17.60;11.63;;;8.40;99.90;;;;;;4898762;29;20452;-82
2021/11/15 10:06:28;;;;;;;22.80;13.30;;;8.50;99.90;;;;;;4872336;29;20442;-80
2021/11/15 10:08:56;;;;;;;21.87;13.00;;;8.30;99.90;;;;;;4940008;28;20435;-80
2021/11/15 10:11:24;;;;;;;25.00;13.63;;;8.20;99.90;;;;;;4968515;28;20759;-82
2021/11/15 10:13:52;;;;;;;21.23;11.67;;;8.20;99.90;;;;;;4984348;28;20826;-79
2021/11/15 10:16:21;;;;;;;22.33;12.80;;;8.20;99.90;;;;;;5025772;28;20418;-80
2021/11/15 10:18:54;;;;;;;21.20;11.57;;;8.40;99.90;;;;;;5043648;28;20429;-82
2021/11/15 10:21:25;;;;;;;30.93;13.23;;;8.40;99.90;;;;;;5040210;28;20885;-82
2021/11/15 10:23:58;;;;;;;19.03;12.07;;;8.20;99.90;;;;;;5023697;28;20899;-79
2021/11/15 10:26:37;;;;;;;21.80;12.13;;;8.20;99.90;;;;;;5061033;28;20434;-80
2021/11/15 10:29:10;;;;;;;28.43;14.70;;;8.20;99.90;;;;;;5046867;28;20484;-79
2021/11/15 10:31:44;;;;;;;18.20;11.90;;;8.10;99.90;;;;;;5062744;28;20422;-80
2021/11/15 10:34:15;;;;;;;16.60;11.07;;;8.30;99.90;;;;;;5048072;28;20430;-81
2021/11/15 10:36:53;;;;;;;21.87;10.63;;;8.30;99.90;;;;;;5049117;28;20438;-80
2021/11/15 10:39:21;;;;;;;20.87;12.03;;;8.40;99.90;;;;;;5027107;28;20447;-81
2021/11/15 10:42:07;;;;;;;20.40;12.50;;;8.20;99.90;;;;;;5032280;28;20427;-80
2021/11/15 10:44:35;;;;;;;23.33;13.07;;;8.40;99.90;;;;;;5048465;28;20553;-81
2021/11/15 10:47:02;;;;;;;18.50;11.60;;;8.50;99.90;;;;;;5048334;28;20550;-80
2021/11/15 10:49:28;;;;;;;21.30;12.30;;;8.40;99.90;;;;;;5050689;28;20411;-81
2021/11/15 10:52:06;;;;;;;17.33;11.70;;;8.50;99.90;;;;;;5024553;28;20438;-80
2021/11/15 10:54:48;;;;;;;21.40;11.40;;;8.40;99.90;;;;;;5037188;28;20437;-80
2021/11/15 10:57:26;;;;;;;25.20;12.27;;;8.30;99.90;;;;;;5067425;28;20406;-79
2021/11/15 11:00:08;;;;;;;17.90;12.43;;;8.10;99.90;;;;;;5098596;28;20484;-79
2021/11/15 11:02:42;;;;;;;21.40;10.10;;;8.20;99.90;;;;;;5113786;28;21045;-80
2021/11/15 11:05:30;;;;;;;24.63;12.33;;;8.50;99.90;;;;;;5094010;28;20438;-79
2021/11/15 11:08:11;;;;;;;16.37;11.70;;;8.50;99.90;;;;;;5120326;28;20450;-79
2021/11/15 11:10:48;;;;;;;19.40;11.27;;;8.50;99.90;;;;;;5103439;28;20439;-79
2021/11/15 11:13:17;;;;;;;17.43;11.60;;;8.40;99.90;;;;;;5114011;28;20426;-81
2021/11/15 11:15:47;;;;;;;21.37;11.30;;;8.40;99.90;;;;;;5087171;28;20559;-80
2021/11/15 11:18:24;;;;;;;23.33;11.87;;;8.40;99.90;;;;;;5068288;28;20527;-79
2021/11/15 11:26:57;;;;;;;26.03;13.50;;;8.40;99.90;;;;;;5087923;28;20460;-82
2021/11/15 11:29:28;;;;;;;20.97;13.00;;;8.30;99.90;;;;;;5117027;27;20416;-82
2021/11/15 11:32:00;;;;;;;15.63;10.77;;;8.30;99.90;;;;;;5098351;28;20411;-80
2021/11/15 11:34:27;;;;;;;23.30;13.00;;;8.30;99.90;;;;;;5023604;28;20410;-81
2021/11/15 11:36:54;;;;;;;20.97;13.00;;;8.40;99.90;;;;;;5036333;28;20443;-81
2021/11/15 11:39:21;;;;;;;14.60;10.53;;;8.30;99.90;;;;;;5047762;28;20437;-80
2021/11/15 11:41:56;;;;;;;18.67;11.07;;;8.40;99.90;;;;;;5018815;28;20561;-79
2021/11/15 11:44:24;;;;;;;20.20;11.50;;;8.20;99.90;;;;;;5049408;28;20492;-80
2021/11/15 11:46:50;;;;;;;19.67;12.27;;;8.30;99.90;;;;;;5048607;28;20419;-80
2021/11/15 11:49:18;;;;;;;16.20;10.43;;;8.40;99.90;;;;;;5047448;28;20413;-79
2021/11/15 11:51:49;;;;;;;22.73;10.70;;;8.40;99.90;;;;;;5033095;28;20409;-80
2021/11/15 11:54:41;;;;;;;20.03;10.27;;;8.40;99.90;;;;;;5049959;28;20950;-78
2021/11/15 11:57:20;;;;;;;12.30;8.93;;;8.50;99.90;;;;;;5000298;28;20417;-80
2021/11/15 12:00:19;;;;;;;17.30;11.80;;;8.70;99.90;;;;;;5000827;28;20420;-80
2021/11/15 12:03:03;;;;;;;21.30;12.00;;;8.60;99.90;;;;;;4979706;28;20431;-80
2021/11/15 12:05:33;;;;;;;22.23;11.40;;;8.60;99.90;;;;;;5011664;28;20441;-81
2021/11/15 12:08:02;;;;;;;14.13;8.80;;;8.80;99.90;;;;;;5038056;28;20402;-80
2021/11/15 12:10:49;;;;;;;17.03;11.13;;;8.70;99.90;;;;;;5040312;28;20431;-81
2021/11/15 12:13:17;;;;;;;17.83;9.90;;;8.70;99.90;;;;;;5025261;28;20455;-82
2021/11/15 12:15:55;;;;;;;18.97;11.73;;;8.90;99.90;;;;;;5023300;28;20490;-80
2021/11/15 12:18:25;;;;;;;19.87;11.20;;;8.90;99.90;;;;;;5043323;28;20429;-80
2021/11/15 12:21:09;;;;;;;15.90;10.60;;;8.90;99.90;;;;;;5030810;28;20503;-81
2021/11/15 12:23:42;;;;;;;16.60;10.57;;;9.00;99.90;;;;;;5068118;28;20427;-78
2021/11/15 12:26:17;;;;;;;21.50;11.03;;;9.00;99.90;;;;;;5068762;28;20513;-81
2021/11/15 12:28:45;;;;;;;18.33;9.30;;;8.90;99.90;;;;;;5066329;28;20521;-78
2021/11/15 12:31:13;;;;;;;21.60;9.20;;;9.10;99.90;;;;;;5069696;28;20521;-80
2021/11/15 12:33:42;;;;;;;17.57;10.40;;;9.20;99.90;;;;;;5053074;28;20426;-80
2021/11/15 12:36:11;;;;;;;10.47;8.23;;;9.10;99.90;;;;;;5073659;28;20415;-80
2021/11/15 12:38:54;;;;;;;18.27;10.87;;;8.90;99.90;;;;;;5070412;28;20475;-80
2021/11/15 12:41:38;;;;;;;14.57;9.07;;;8.90;99.90;;;;;;5099382;28;20440;-79
2021/11/15 12:44:14;;;;;;;17.67;9.90;;;8.70;99.90;;;;;;5087114;28;20442;-80
2021/11/15 12:46:46;;;;;;;11.37;8.37;;;8.60;99.90;;;;;;5105245;28;20432;-79
2021/11/15 12:49:18;;;;;;;13.50;9.80;;;8.60;99.90;;;;;;5085904;28;20436;-80
2021/11/15 12:52:18;;;;;;;20.30;11.32;;;8.70;99.90;;;;;;5098853;28;20530;-79
2021/11/15 12:54:48;;;;;;;15.70;10.90;;;8.90;99.90;;;;;;5080447;28;20309;-81
2021/11/15 12:57:58;;;;;;;10.73;8.73;;;8.90;99.90;;;;;;5089540;28;20387;-80
2021/11/15 13:00:30;;;;;;;13.23;10.03;;;8.70;99.90;;;;;;5054014;28;20434;-80
2021/11/15 13:03:00;;;;;;;14.93;9.07;;;8.80;99.90;;;;;;5043441;28;20507;-80
2021/11/15 13:05:30;;;;;;;17.73;12.00;;;8.70;99.90;;;;;;5055385;28;20540;-82
2021/11/15 13:08:01;;;;;;;21.83;11.93;;;8.80;99.90;;;;;;5056343;28;20481;-79
2021/11/15 13:10:28;;;;;;;17.07;9.70;;;8.80;99.90;;;;;;5052141;28;20468;-79
2021/11/15 13:12:56;;;;;;;16.57;10.20;;;8.90;99.90;;;;;;5054645;28;20458;-80
2021/11/15 13:15:22;;;;;;;13.53;9.90;;;8.90;99.90;;;;;;5083722;28;20439;-80
2021/11/15 13:17:49;;;;;;;16.60;9.33;;;8.80;99.90;;;;;;5094435;28;20515;-80